Time;durP1;ratioP1;P1;durP2;ratioP2;P2;SDS_P1;SDS_P2;PMS_P1;PMS_P2;Temp;Humidity;BMP_temperature;BMP_pressure;BME280_temperature;BME280_humidity;BME280_pressure;Samples;Min_cycle;Max_cycle;Signal;HPM_P1;HPM_P2
2022/07/21 00:01:46;;;;;;;18.10;11.27;;;;;;;;;;5077634;28;20047;-78
2022/07/21 00:04:12;;;;;;;15.13;10.48;;;;;;;;;;5087167;28;20058;-78
2022/07/21 00:06:38;;;;;;;20.50;11.90;;;;;;;;;;5088073;28;20042;-78
2022/07/21 00:09:04;;;;;;;21.92;13.10;;;;;;;;;;5086900;28;20517;-79
2022/07/21 00:11:30;;;;;;;18.58;12.55;;;;;;;;;;5088418;28;20041;-79
2022/07/21 00:13:58;;;;;;;23.65;13.10;;;;;;;;;;5091505;28;20043;-79
2022/07/21 00:16:24;;;;;;;23.90;14.52;;;;;;;;;;5074371;28;20443;-80
2022/07/21 00:18:50;;;;;;;22.25;13.48;;;;;;;;;;5072219;28;20094;-80
2022/07/21 00:21:16;;;;;;;23.73;13.95;;;;;;;;;;5090286;28;20043;-79
2022/07/21 00:23:42;;;;;;;21.58;15.30;;;;;;;;;;5090084;28;21597;-79
2022/07/21 00:26:08;;;;;;;25.27;16.10;;;;;;;;;;5051802;28;20043;-80
2022/07/21 00:28:35;;;;;;;23.13;16.15;;;;;;;;;;5071546;28;20035;-79
2022/07/21 00:31:01;;;;;;;23.65;16.65;;;;;;;;;;5090026;28;20047;-79
2022/07/21 00:33:27;;;;;;;25.90;16.75;;;;;;;;;;5090631;28;20039;-78
2022/07/21 00:35:53;;;;;;;26.40;18.27;;;;;;;;;;5094144;28;20572;-79
2022/07/21 00:38:19;;;;;;;28.20;17.75;;;;;;;;;;5093740;28;20036;-80
2022/07/21 00:40:45;;;;;;;30.33;17.73;;;;;;;;;;5091351;28;20142;-80
2022/07/21 00:43:11;;;;;;;29.55;19.23;;;;;;;;;;5094130;28;20496;-80
2022/07/21 00:45:37;;;;;;;28.05;18.67;;;;;;;;;;5093467;28;20039;-80
2022/07/21 00:48:04;;;;;;;25.10;17.55;;;;;;;;;;5092355;28;20038;-80
2022/07/21 00:50:30;;;;;;;29.70;19.42;;;;;;;;;;5066891;28;20044;-80
2022/07/21 00:52:56;;;;;;;27.27;18.83;;;;;;;;;;5091347;28;20480;-80
2022/07/21 00:55:22;;;;;;;31.00;19.10;;;;;;;;;;5050911;28;20455;-79
2022/07/21 00:57:49;;;;;;;27.00;17.58;;;;;;;;;;5094002;28;20430;-79
2022/07/21 01:00:23;;;;;;;27.20;17.27;;;;;;;;;;5076191;28;20039;-80
2022/07/21 01:02:49;;;;;;;24.02;17.80;;;;;;;;;;5091201;28;21855;-78
2022/07/21 01:05:17;;;;;;;26.73;16.95;;;;;;;;;;5093953;28;20110;-78
2022/07/21 01:07:44;;;;;;;24.02;16.98;;;;;;;;;;5097861;28;20052;-78
2022/07/21 01:10:11;;;;;;;25.58;17.48;;;;;;;;;;5090438;28;20089;-78
2022/07/21 01:12:38;;;;;;;27.38;18.38;;;;;;;;;;5081456;28;20035;-79
2022/07/21 01:15:05;;;;;;;27.98;18.30;;;;;;;;;;5112512;28;20383;-78
2022/07/21 01:17:31;;;;;;;29.90;18.77;;;;;;;;;;5070367;28;20385;-78
2022/07/21 01:19:57;;;;;;;25.80;17.95;;;;;;;;;;5086522;28;20035;-77
2022/07/21 01:22:23;;;;;;;28.00;19.20;;;;;;;;;;5095576;28;20088;-76
2022/07/21 01:24:49;;;;;;;29.52;19.75;;;;;;;;;;5096075;28;20054;-77
2022/07/21 01:27:15;;;;;;;27.92;18.83;;;;;;;;;;5078778;28;20043;-77
2022/07/21 01:29:41;;;;;;;30.77;21.58;;;;;;;;;;5098276;28;20047;-77
2022/07/21 01:32:08;;;;;;;29.27;21.33;;;;;;;;;;5096500;28;20027;-76
2022/07/21 01:34:34;;;;;;;30.27;21.25;;;;;;;;;;5078694;28;20051;-76
2022/07/21 01:37:00;;;;;;;35.55;23.65;;;;;;;;;;5097250;28;20043;-76
2022/07/21 01:42:10;;;;;;;36.33;26.05;;;;;;;;;;5096039;28;20044;-76
2022/07/21 01:44:36;;;;;;;37.53;26.10;;;;;;;;;;5097166;28;20046;-76
2022/07/21 01:47:02;;;;;;;35.83;24.92;;;;;;;;;;5097338;28;20081;-77
2022/07/21 01:49:28;;;;;;;38.33;27.05;;;;;;;;;;5097750;28;21339;-78
2022/07/21 01:51:55;;;;;;;35.10;25.77;;;;;;;;;;5064047;28;20043;-78
2022/07/21 01:54:21;;;;;;;37.03;26.35;;;;;;;;;;5094477;28;20082;-79
2022/07/21 01:56:47;;;;;;;36.10;26.73;;;;;;;;;;5098157;28;20039;-78
2022/07/21 01:59:13;;;;;;;32.50;24.88;;;;;;;;;;5079705;28;20476;-78
2022/07/21 02:01:39;;;;;;;37.53;26.00;;;;;;;;;;5095636;28;20090;-77
2022/07/21 02:04:05;;;;;;;35.20;25.63;;;;;;;;;;5078330;28;20031;-78
2022/07/21 02:06:31;;;;;;;34.60;24.40;;;;;;;;;;5094646;28;20046;-79
2022/07/21 02:08:57;;;;;;;31.48;22.40;;;;;;;;;;5097494;28;20475;-76
2022/07/21 02:11:23;;;;;;;32.80;23.80;;;;;;;;;;5095804;28;20100;-78
2022/07/21 02:13:49;;;;;;;32.13;23.45;;;;;;;;;;5112516;28;20444;-79
2022/07/21 02:16:15;;;;;;;31.42;22.88;;;;;;;;;;5096896;28;20035;-78
2022/07/21 02:18:42;;;;;;;32.42;24.02;;;;;;;;;;5095632;28;20036;-79
2022/07/21 02:21:08;;;;;;;31.77;24.08;;;;;;;;;;5070809;28;20035;-79
2022/07/21 02:23:34;;;;;;;31.08;22.25;;;;;;;;;;5074246;28;20821;-80
2022/07/21 02:26:01;;;;;;;31.52;23.02;;;;;;;;;;5095041;28;20047;-79
2022/07/21 02:28:27;;;;;;;27.70;21.83;;;;;;;;;;5078296;28;20031;-80
2022/07/21 02:30:53;;;;;;;27.63;21.95;;;;;;;;;;5095938;28;20048;-79
2022/07/21 02:33:20;;;;;;;28.23;21.15;;;;;;;;;;5092552;28;20043;-79
2022/07/21 02:35:46;;;;;;;25.63;20.10;;;;;;;;;;5095366;28;20048;-79
2022/07/21 02:38:12;;;;;;;24.13;19.60;;;;;;;;;;5095177;28;20042;-79
2022/07/21 02:40:38;;;;;;;25.20;20.27;;;;;;;;;;5091518;28;20040;-79
2022/07/21 02:43:05;;;;;;;25.20;19.45;;;;;;;;;;5092743;28;20402;-79
2022/07/21 02:45:31;;;;;;;20.75;18.48;;;;;;;;;;5096005;28;20134;-79
2022/07/21 02:47:59;;;;;;;24.80;19.30;;;;;;;;;;5095317;28;20035;-79
2022/07/21 02:50:26;;;;;;;25.80;20.20;;;;;;;;;;5096435;28;20040;-79
2022/07/21 02:52:57;;;;;;;24.05;19.52;;;;;;;;;;5079123;28;20040;-78
2022/07/21 02:55:23;;;;;;;26.00;19.92;;;;;;;;;;5095881;28;20047;-77
2022/07/21 02:57:49;;;;;;;26.73;20.02;;;;;;;;;;5094568;28;20047;-76
2022/07/21 03:00:16;;;;;;;24.63;19.80;;;;;;;;;;5095681;28;20046;-77
2022/07/21 03:02:42;;;;;;;26.00;18.92;;;;;;;;;;5095411;28;20060;-78
2022/07/21 03:05:08;;;;;;;20.95;17.10;;;;;;;;;;5115048;28;20051;-77
2022/07/21 03:07:34;;;;;;;23.23;17.80;;;;;;;;;;5091812;28;20046;-76
2022/07/21 03:10:00;;;;;;;22.80;17.10;;;;;;;;;;5094428;28;20043;-77
2022/07/21 03:12:26;;;;;;;19.50;14.80;;;;;;;;;;5095127;28;20089;-74
2022/07/21 03:14:52;;;;;;;18.17;15.00;;;;;;;;;;5095682;28;20039;-77
2022/07/21 03:17:19;;;;;;;18.30;15.00;;;;;;;;;;5094777;28;20089;-76
2022/07/21 03:19:45;;;;;;;19.48;14.90;;;;;;;;;;5095321;28;20039;-76
2022/07/21 03:22:11;;;;;;;18.15;14.75;;;;;;;;;;5095486;28;20125;-76
2022/07/21 03:24:37;;;;;;;20.02;15.00;;;;;;;;;;5111938;28;20205;-76
2022/07/21 03:27:03;;;;;;;17.77;15.05;;;;;;;;;;5095671;28;20061;-77
2022/07/21 03:29:29;;;;;;;20.42;15.50;;;;;;;;;;5093302;28;20122;-78
2022/07/21 03:31:55;;;;;;;17.27;13.60;;;;;;;;;;5113667;28;20040;-78
2022/07/21 03:34:21;;;;;;;19.00;15.27;;;;;;;;;;5095194;28;20082;-79
2022/07/21 03:36:47;;;;;;;18.23;14.68;;;;;;;;;;5062368;28;20078;-78
2022/07/21 03:39:13;;;;;;;18.92;14.32;;;;;;;;;;5090503;28;20488;-78
2022/07/21 03:41:39;;;;;;;17.38;14.70;;;;;;;;;;5093221;28;20403;-79
2022/07/21 03:44:05;;;;;;;17.40;14.80;;;;;;;;;;5091635;28;20400;-79
2022/07/21 03:46:31;;;;;;;18.70;14.63;;;;;;;;;;5091035;28;20442;-79
2022/07/21 03:48:57;;;;;;;18.02;15.05;;;;;;;;;;5078113;28;20073;-79
2022/07/21 03:51:23;;;;;;;16.65;13.82;;;;;;;;;;5095584;28;20043;-79
2022/07/21 03:53:50;;;;;;;20.63;15.02;;;;;;;;;;5113682;28;20039;-79
2022/07/21 03:56:16;;;;;;;20.67;14.85;;;;;;;;;;5078818;28;20503;-80
2022/07/21 03:58:42;;;;;;;18.95;15.10;;;;;;;;;;5113028;28;20089;-80
2022/07/21 04:01:08;;;;;;;18.90;15.43;;;;;;;;;;5094564;28;20552;-79
2022/07/21 04:03:35;;;;;;;18.98;15.30;;;;;;;;;;5084896;28;20491;-80
2022/07/21 04:06:01;;;;;;;20.73;16.35;;;;;;;;;;5094015;28;20042;-79
2022/07/21 04:08:28;;;;;;;18.70;15.45;;;;;;;;;;5093943;28;20031;-79
2022/07/21 04:10:54;;;;;;;24.35;17.88;;;;;;;;;;5084903;28;20035;-79
2022/07/21 04:13:20;;;;;;;21.25;16.73;;;;;;;;;;5094360;28;20039;-76
2022/07/21 04:15:46;;;;;;;24.75;18.20;;;;;;;;;;5111548;28;20078;-80
2022/07/21 04:18:12;;;;;;;23.40;16.98;;;;;;;;;;5094495;28;20073;-76
2022/07/21 04:20:38;;;;;;;24.35;18.42;;;;;;;;;;5108169;28;20040;-76
2022/07/21 04:23:05;;;;;;;25.58;19.25;;;;;;;;;;5092459;28;20044;-77
2022/07/21 04:25:31;;;;;;;27.73;19.48;;;;;;;;;;5094047;28;20043;-76
2022/07/21 04:27:58;;;;;;;25.65;19.25;;;;;;;;;;5057327;28;20035;-77
2022/07/21 04:30:25;;;;;;;26.58;20.25;;;;;;;;;;5094212;28;20044;-76
2022/07/21 04:32:52;;;;;;;29.10;20.05;;;;;;;;;;5094355;28;20032;-76
2022/07/21 04:35:18;;;;;;;24.92;19.85;;;;;;;;;;5073969;28;20118;-76
2022/07/21 04:37:44;;;;;;;25.83;20.15;;;;;;;;;;5088997;28;20120;-76
2022/07/21 04:40:11;;;;;;;28.05;20.25;;;;;;;;;;5081069;28;20473;-76
2022/07/21 04:42:38;;;;;;;27.33;20.40;;;;;;;;;;5086513;28;20489;-76
2022/07/21 04:45:05;;;;;;;30.17;21.50;;;;;;;;;;5075350;28;20043;-76
2022/07/21 04:47:31;;;;;;;26.27;19.90;;;;;;;;;;5085181;28;20059;-76
2022/07/21 04:49:57;;;;;;;28.38;20.88;;;;;;;;;;5082832;28;20119;-76
2022/07/21 04:52:24;;;;;;;26.75;20.73;;;;;;;;;;5081513;28;20032;-76
2022/07/21 04:54:50;;;;;;;29.70;22.25;;;;;;;;;;5073930;28;20158;-76
2022/07/21 04:57:16;;;;;;;26.23;21.35;;;;;;;;;;5068580;28;20039;-76
2022/07/21 04:59:42;;;;;;;27.00;20.83;;;;;;;;;;5092876;28;20626;-76
2022/07/21 05:02:08;;;;;;;26.42;20.38;;;;;;;;;;5040028;28;20057;-76
2022/07/21 05:04:34;;;;;;;30.17;21.60;;;;;;;;;;5069820;28;20044;-75
2022/07/21 05:07:00;;;;;;;27.23;21.48;;;;;;;;;;5053338;28;20540;-75
2022/07/21 05:09:26;;;;;;;25.75;20.63;;;;;;;;;;5056574;28;20067;-75
2022/07/21 05:11:52;;;;;;;30.02;22.05;;;;;;;;;;5070647;28;20062;-78
2022/07/21 05:17:34;;;;;;;27.25;20.13;;;;;;;;;;5096526;22;20056;-75
2022/07/21 05:20:01;;;;;;;27.23;20.63;;;;;;;;;;5079787;28;20044;-76
2022/07/21 05:22:27;;;;;;;27.13;20.52;;;;;;;;;;5080326;28;20123;-76
2022/07/21 05:24:53;;;;;;;24.80;19.73;;;;;;;;;;5068933;28;20489;-76
2022/07/21 05:27:20;;;;;;;24.23;19.85;;;;;;;;;;5072024;28;20043;-75
2022/07/21 05:29:46;;;;;;;25.42;20.05;;;;;;;;;;5073319;28;20039;-75
2022/07/21 05:32:12;;;;;;;24.00;19.60;;;;;;;;;;5073764;28;20048;-77
2022/07/21 05:34:38;;;;;;;23.60;20.02;;;;;;;;;;5071008;28;20055;-77
2022/07/21 05:37:06;;;;;;;23.30;19.83;;;;;;;;;;5057187;28;20046;-76
2022/07/21 05:39:32;;;;;;;23.90;19.83;;;;;;;;;;5057386;28;20051;-74
2022/07/21 05:41:58;;;;;;;21.83;17.83;;;;;;;;;;5073475;28;20047;-76
2022/07/21 05:44:24;;;;;;;21.95;18.45;;;;;;;;;;5056691;28;20047;-76
2022/07/21 05:46:51;;;;;;;23.08;17.83;;;;;;;;;;5073564;28;20040;-76
2022/07/21 05:49:17;;;;;;;22.42;17.92;;;;;;;;;;5056992;28;20556;-76
2022/07/21 05:51:43;;;;;;;19.67;16.60;;;;;;;;;;5059358;28;20070;-77
2022/07/21 05:54:09;;;;;;;20.55;17.10;;;;;;;;;;5075991;28;20407;-77
2022/07/21 05:56:35;;;;;;;25.98;18.02;;;;;;;;;;5056711;28;20044;-76
2022/07/21 05:59:01;;;;;;;19.88;15.73;;;;;;;;;;5073086;28;20032;-76
2022/07/21 06:01:27;;;;;;;18.55;15.35;;;;;;;;;;5056717;28;20075;-77
2022/07/21 06:03:53;;;;;;;19.98;15.32;;;;;;;;;;5056575;28;20036;-80
2022/07/21 06:06:20;;;;;;;18.75;14.90;;;;;;;;;;5074544;28;20123;-76
2022/07/21 06:08:47;;;;;;;20.15;15.35;;;;;;;;;;5080150;28;20093;-77
2022/07/21 06:11:15;;;;;;;20.95;15.95;;;;;;;;;;5072609;28;20055;-78
2022/07/21 06:13:41;;;;;;;18.67;15.25;;;;;;;;;;5072381;28;20484;-77
2022/07/21 06:16:08;;;;;;;19.45;15.00;;;;;;;;;;5076643;28;20036;-78
2022/07/21 06:18:34;;;;;;;19.25;15.32;;;;;;;;;;5077349;28;20036;-79
2022/07/21 06:21:00;;;;;;;17.23;14.90;;;;;;;;;;5090474;28;20048;-79
2022/07/21 06:23:27;;;;;;;18.15;14.15;;;;;;;;;;5060631;28;20386;-79
2022/07/21 06:25:53;;;;;;;19.17;15.05;;;;;;;;;;5062195;28;20052;-79
2022/07/21 06:28:20;;;;;;;20.65;15.77;;;;;;;;;;5063146;28;20040;-79
2022/07/21 06:30:46;;;;;;;21.33;16.70;;;;;;;;;;5091039;28;20051;-81
2022/07/21 06:33:12;;;;;;;19.80;16.85;;;;;;;;;;5085301;28;20040;-81
2022/07/21 06:35:38;;;;;;;21.17;17.17;;;;;;;;;;5089526;28;20392;-79
2022/07/21 06:38:05;;;;;;;19.40;16.42;;;;;;;;;;5090971;28;20039;-79
2022/07/21 06:40:31;;;;;;;25.20;18.38;;;;;;;;;;5089968;28;20108;-79
2022/07/21 06:42:58;;;;;;;23.40;19.10;;;;;;;;;;5097266;28;20592;-80
2022/07/21 06:45:24;;;;;;;24.10;18.80;;;;;;;;;;5085799;28;20077;-78
2022/07/21 06:47:50;;;;;;;23.77;17.63;;;;;;;;;;5090385;28;20043;-78
2022/07/21 06:50:17;;;;;;;23.48;19.15;;;;;;;;;;5076093;28;20028;-77
2022/07/21 06:52:43;;;;;;;24.08;18.88;;;;;;;;;;5090536;28;20047;-76
2022/07/21 06:55:09;;;;;;;24.13;18.75;;;;;;;;;;5094783;28;20040;-79
2022/07/21 06:57:36;;;;;;;25.10;19.67;;;;;;;;;;5077795;28;20115;-78
2022/07/21 07:00:04;;;;;;;25.55;20.02;;;;;;;;;;5059234;28;20047;-76
2022/07/21 07:02:30;;;;;;;28.33;19.83;;;;;;;;;;5075371;28;20044;-77
2022/07/21 07:04:56;;;;;;;29.05;21.10;;;;;;;;;;5074857;28;20093;-75
2022/07/21 07:07:23;;;;;;;27.00;22.27;;;;;;;;;;5069511;28;20450;-76
2022/07/21 07:09:49;;;;;;;32.70;21.55;;;;;;;;;;5058147;28;20177;-77
2022/07/21 07:12:15;;;;;;;30.60;22.85;;;;;;;;;;5092676;28;20404;-78
2022/07/21 07:14:41;;;;;;;32.10;23.48;;;;;;;;;;5060630;28;20039;-79
2022/07/21 07:17:07;;;;;;;31.45;23.80;;;;;;;;;;5083408;28;20158;-76
2022/07/21 07:19:33;;;;;;;31.98;24.42;;;;;;;;;;5075567;28;20056;-77
2022/07/21 07:21:59;;;;;;;32.63;24.73;;;;;;;;;;5075954;28;20119;-78
2022/07/21 07:24:26;;;;;;;30.55;24.60;;;;;;;;;;5053556;28;20105;-77
2022/07/21 07:26:52;;;;;;;35.88;25.60;;;;;;;;;;5068727;28;20054;-76
2022/07/21 07:29:18;;;;;;;36.75;26.88;;;;;;;;;;5068157;28;20043;-75
2022/07/21 07:31:44;;;;;;;35.65;27.58;;;;;;;;;;5062864;28;20044;-76
2022/07/21 07:34:10;;;;;;;36.53;28.33;;;;;;;;;;5055896;28;20037;-76
2022/07/21 07:36:36;;;;;;;40.83;29.98;;;;;;;;;;5075771;28;20437;-76
2022/07/21 07:39:03;;;;;;;39.70;29.30;;;;;;;;;;5075409;28;20455;-76
2022/07/21 07:41:31;;;;;;;41.10;30.10;;;;;;;;;;5091951;28;20432;-77
2022/07/21 07:43:59;;;;;;;40.00;29.42;;;;;;;;;;5074841;28;20044;-75
2022/07/21 07:46:25;;;;;;;41.15;31.17;;;;;;;;;;5075615;28;20047;-76
2022/07/21 07:48:51;;;;;;;43.83;31.65;;;;;;;;;;5074815;28;20044;-79
2022/07/21 07:51:17;;;;;;;42.03;30.75;;;;;;;;;;5060426;28;20036;-78
2022/07/21 07:53:43;;;;;;;41.20;30.02;;;;;;;;;;5075581;28;20040;-78
2022/07/21 07:56:09;;;;;;;38.83;30.15;;;;;;;;;;5066453;28;20395;-80
2022/07/21 07:58:36;;;;;;;42.17;30.60;;;;;;;;;;5083873;28;20450;-75
2022/07/21 08:01:03;;;;;;;41.28;29.77;;;;;;;;;;5098795;28;20475;-79
2022/07/21 08:03:29;;;;;;;41.42;30.30;;;;;;;;;;5093741;28;20047;-78
2022/07/21 08:05:59;;;;;;;41.17;30.60;;;;;;;;;;5078316;28;20036;-78
2022/07/21 08:08:25;;;;;;;40.65;30.50;;;;;;;;;;5065348;28;20047;-78
2022/07/21 08:10:51;;;;;;;47.00;31.42;;;;;;;;;;5076503;28;20434;-75
2022/07/21 08:13:18;;;;;;;45.13;30.98;;;;;;;;;;5037756;28;20122;-75
2022/07/21 08:15:45;;;;;;;43.30;30.85;;;;;;;;;;5086246;28;20047;-77
2022/07/21 08:18:11;;;;;;;44.38;31.40;;;;;;;;;;5050119;28;20090;-78
2022/07/21 08:20:38;;;;;;;42.90;30.45;;;;;;;;;;5050752;28;20071;-79
2022/07/21 08:23:05;;;;;;;45.45;31.27;;;;;;;;;;5051850;28;20089;-77
2022/07/21 08:25:31;;;;;;;43.97;30.90;;;;;;;;;;5074785;28;20040;-80
2022/07/21 08:27:57;;;;;;;47.17;32.15;;;;;;;;;;5066052;28;20044;-76
2022/07/21 08:30:23;;;;;;;44.38;31.67;;;;;;;;;;5077528;28;20494;-78
2022/07/21 08:32:49;;;;;;;45.22;32.53;;;;;;;;;;5075097;28;20058;-77
2022/07/21 08:35:15;;;;;;;44.17;30.67;;;;;;;;;;5058324;28;20518;-77
2022/07/21 08:37:42;;;;;;;45.67;31.67;;;;;;;;;;5064511;28;20041;-78
2022/07/21 08:40:09;;;;;;;47.28;32.17;;;;;;;;;;5059181;28;20483;-78
2022/07/21 08:42:35;;;;;;;44.75;32.90;;;;;;;;;;5081715;28;20097;-78
2022/07/21 08:45:01;;;;;;;48.17;33.33;;;;;;;;;;5090250;28;20044;-79
2022/07/21 08:47:28;;;;;;;43.83;32.15;;;;;;;;;;5084325;28;20537;-79
2022/07/21 08:49:54;;;;;;;45.75;32.72;;;;;;;;;;5077447;28;20400;-79
2022/07/21 08:52:21;;;;;;;47.75;33.38;;;;;;;;;;5070856;28;20050;-79
2022/07/21 08:54:47;;;;;;;48.33;32.45;;;;;;;;;;5074855;28;20035;-78
2022/07/21 08:57:13;;;;;;;46.58;33.65;;;;;;;;;;5060804;28;20120;-78
2022/07/21 08:59:39;;;;;;;46.65;32.13;;;;;;;;;;5074863;28;20043;-77
2022/07/21 09:02:05;;;;;;;49.47;31.35;;;;;;;;;;5069189;28;20043;-77
2022/07/21 09:04:33;;;;;;;49.05;33.22;;;;;;;;;;5044913;28;20044;-76
2022/07/21 09:07:00;;;;;;;44.40;31.15;;;;;;;;;;5066426;28;20386;-76
2022/07/21 09:09:27;;;;;;;45.53;32.35;;;;;;;;;;5067992;28;20186;-76
2022/07/21 09:11:53;;;;;;;46.17;31.85;;;;;;;;;;5096881;28;20086;-77
2022/07/21 09:14:21;;;;;;;47.13;32.05;;;;;;;;;;5069697;28;20044;-77
2022/07/21 09:16:56;;;;;;;42.65;30.77;;;;;;;;;;5076033;28;20119;-78
2022/07/21 09:19:28;;;;;;;47.38;31.85;;;;;;;;;;5055950;28;20056;-78
2022/07/21 09:22:00;;;;;;;45.30;31.73;;;;;;;;;;5070871;28;20431;-77
2022/07/21 09:24:33;;;;;;;47.20;31.83;;;;;;;;;;5058154;28;20035;-77
2022/07/21 09:27:07;;;;;;;44.20;30.60;;;;;;;;;;5059611;28;20090;-77
2022/07/21 09:29:44;;;;;;;44.20;30.38;;;;;;;;;;5061702;28;20048;-77
2022/07/21 09:32:17;;;;;;;46.13;31.15;;;;;;;;;;5060585;28;20052;-76
2022/07/21 09:34:43;;;;;;;43.30;30.95;;;;;;;;;;5076219;28;20092;-76
2022/07/21 09:37:09;;;;;;;42.75;29.92;;;;;;;;;;5068530;28;20129;-76
2022/07/21 09:39:41;;;;;;;45.85;31.55;;;;;;;;;;5046791;28;20508;-76
2022/07/21 09:42:13;;;;;;;41.80;29.83;;;;;;;;;;5085489;28;20069;-77
2022/07/21 09:44:42;;;;;;;45.47;31.02;;;;;;;;;;5086020;28;20125;-77
2022/07/21 09:47:15;;;;;;;43.83;30.08;;;;;;;;;;5083761;28;20050;-77
2022/07/21 09:49:42;;;;;;;41.85;30.25;;;;;;;;;;5078609;28;20040;-77
2022/07/21 09:52:21;;;;;;;45.90;30.45;;;;;;;;;;5065967;28;20035;-76
2022/07/21 09:54:47;;;;;;;42.08;29.30;;;;;;;;;;5078299;28;20040;-77
2022/07/21 09:57:14;;;;;;;44.10;30.38;;;;;;;;;;5095414;28;20374;-77
2022/07/21 09:59:42;;;;;;;45.42;31.55;;;;;;;;;;5077914;28;20040;-77
2022/07/21 10:02:11;;;;;;;42.00;29.20;;;;;;;;;;5077636;28;20040;-81
2022/07/21 10:04:38;;;;;;;41.95;30.45;;;;;;;;;;5067024;28;20055;-79
2022/07/21 10:07:04;;;;;;;45.72;31.35;;;;;;;;;;5064075;28;20123;-80
2022/07/21 10:09:30;;;;;;;42.70;30.45;;;;;;;;;;5092426;28;20072;-76
2022/07/21 10:11:57;;;;;;;43.50;29.95;;;;;;;;;;5096725;28;20040;-78
2022/07/21 10:14:23;;;;;;;40.92;29.60;;;;;;;;;;5078594;28;20045;-78
2022/07/21 10:16:51;;;;;;;42.35;30.17;;;;;;;;;;5054843;28;20793;-79
2022/07/21 10:19:20;;;;;;;43.70;30.83;;;;;;;;;;5079700;28;20098;-78
2022/07/21 10:22:04;;;;;;;40.65;29.50;;;;;;;;;;5078675;28;20052;-74
2022/07/21 10:24:31;;;;;;;38.80;28.15;;;;;;;;;;5085027;28;20036;-76
2022/07/21 10:27:03;;;;;;;43.75;30.55;;;;;;;;;;5081340;28;20065;-75
2022/07/21 10:29:48;;;;;;;41.35;30.00;;;;;;;;;;5067012;28;20040;-76
2022/07/21 10:32:18;;;;;;;39.20;29.98;;;;;;;;;;5066490;28;20386;-75
2022/07/21 10:34:44;;;;;;;37.88;27.65;;;;;;;;;;5074207;28;20539;-76
2022/07/21 10:37:11;;;;;;;38.03;28.80;;;;;;;;;;5058054;28;20047;-77
2022/07/21 10:39:39;;;;;;;35.40;27.33;;;;;;;;;;5079376;28;20096;-76
2022/07/21 10:42:16;;;;;;;41.15;30.00;;;;;;;;;;5078923;28;20044;-77
2022/07/21 10:44:43;;;;;;;37.28;28.77;;;;;;;;;;5072114;28;20048;-76
2022/07/21 10:47:10;;;;;;;36.17;27.38;;;;;;;;;;5078512;28;20051;-77
2022/07/21 10:49:44;;;;;;;38.35;28.77;;;;;;;;;;5087566;28;20404;-76
2022/07/21 10:52:29;;;;;;;38.58;28.75;;;;;;;;;;5060058;28;20047;-79
2022/07/21 10:55:11;;;;;;;39.83;29.30;;;;;;;;;;5088203;28;20041;-78
2022/07/21 10:57:37;;;;;;;32.55;25.63;;;;;;;;;;5076302;28;20043;-79
2022/07/21 11:00:17;;;;;;;38.00;27.80;;;;;;;;;;5080182;28;20515;-78
2022/07/21 11:02:43;;;;;;;38.08;27.83;;;;;;;;;;5092293;28;20044;-78
2022/07/21 11:05:10;;;;;;;35.85;27.40;;;;;;;;;;5101239;28;20043;-77
2022/07/21 11:07:55;;;;;;;39.20;28.20;;;;;;;;;;5087552;28;20069;-79
2022/07/21 11:10:21;;;;;;;39.72;28.10;;;;;;;;;;5091187;28;20064;-79
2022/07/21 11:12:57;;;;;;;35.75;26.73;;;;;;;;;;5070554;28;20196;-79
2022/07/21 11:15:41;;;;;;;35.88;25.67;;;;;;;;;;5099186;28;20036;-79
2022/07/21 11:18:08;;;;;;;35.50;25.67;;;;;;;;;;5093927;28;20101;-79
2022/07/21 11:20:34;;;;;;;35.08;27.92;;;;;;;;;;5087439;28;20050;-78
2022/07/21 11:23:03;;;;;;;39.20;30.10;;;;;;;;;;5082903;28;20067;-79
2022/07/21 11:25:34;;;;;;;39.90;30.02;;;;;;;;;;5097314;28;20487;-78
2022/07/21 11:28:00;;;;;;;20.15;16.00;;;;;;;;;;5068730;28;20435;-76
2022/07/21 11:30:26;;;;;;;16.13;13.10;;;;;;;;;;5074451;28;20036;-78
2022/07/21 11:32:52;;;;;;;14.50;12.05;;;;;;;;;;5076869;28;20503;-78
2022/07/21 11:35:18;;;;;;;12.07;10.38;;;;;;;;;;5072187;28;20427;-78
2022/07/21 11:37:45;;;;;;;12.07;10.80;;;;;;;;;;5078508;28;20073;-78
2022/07/21 11:40:16;;;;;;;14.68;11.18;;;;;;;;;;5068095;28;20120;-78
2022/07/21 11:42:43;;;;;;;12.65;10.68;;;;;;;;;;5059204;28;20040;-79
2022/07/21 11:45:10;;;;;;;12.90;11.45;;;;;;;;;;5058164;28;20047;-79
2022/07/21 11:47:36;;;;;;;14.57;12.52;;;;;;;;;;5063523;28;20040;-78
2022/07/21 11:50:04;;;;;;;15.48;12.73;;;;;;;;;;5065281;28;20059;-77
2022/07/21 11:52:32;;;;;;;16.42;12.82;;;;;;;;;;5070438;28;20045;-76
2022/07/21 11:54:59;;;;;;;17.77;13.82;;;;;;;;;;5071803;28;20036;-77
2022/07/21 11:57:26;;;;;;;19.45;15.40;;;;;;;;;;5059917;28;20507;-78
2022/07/21 11:59:52;;;;;;;18.02;16.02;;;;;;;;;;5046296;28;20096;-79
2022/07/21 12:02:22;;;;;;;21.08;16.95;;;;;;;;;;5062914;28;20157;-78
2022/07/21 12:04:53;;;;;;;17.98;15.85;;;;;;;;;;5056815;28;20043;-79
2022/07/21 12:07:20;;;;;;;19.50;16.33;;;;;;;;;;5052800;28;20054;-79
2022/07/21 12:09:48;;;;;;;20.60;16.30;;;;;;;;;;5061269;28;20857;-78
2022/07/21 12:12:14;;;;;;;20.38;15.85;;;;;;;;;;5071929;28;20044;-79
2022/07/21 12:14:45;;;;;;;18.38;14.57;;;;;;;;;;5074777;28;20488;-79
2022/07/21 12:17:11;;;;;;;17.35;14.10;;;;;;;;;;5070454;28;20500;-80
2022/07/21 12:19:38;;;;;;;17.40;14.00;;;;;;;;;;5038444;28;20055;-80
2022/07/21 12:22:04;;;;;;;16.98;14.48;;;;;;;;;;5058463;28;20040;-80
2022/07/21 12:24:49;;;;;;;15.95;13.27;;;;;;;;;;5073013;28;20134;-78
2022/07/21 12:27:16;;;;;;;16.35;14.07;;;;;;;;;;5073733;28;20039;-80
2022/07/21 12:29:42;;;;;;;16.27;13.90;;;;;;;;;;5057329;28;20181;-78
2022/07/21 12:32:08;;;;;;;16.90;12.75;;;;;;;;;;5062997;28;20119;-77
2022/07/21 12:34:47;;;;;;;14.30;12.30;;;;;;;;;;5058217;28;20118;-78
2022/07/21 12:37:13;;;;;;;15.10;12.55;;;;;;;;;;5065229;28;20041;-80
2022/07/21 12:39:58;;;;;;;14.93;12.25;;;;;;;;;;5048564;28;20037;-79
2022/07/21 12:42:28;;;;;;;14.02;11.50;;;;;;;;;;5047569;28;20034;-79
2022/07/21 12:44:55;;;;;;;11.88;10.50;;;;;;;;;;5054914;28;20032;-80
2022/07/21 12:47:22;;;;;;;12.90;10.50;;;;;;;;;;5065528;28;20098;-77
2022/07/21 12:49:56;;;;;;;12.13;10.68;;;;;;;;;;5069492;28;20423;-77
2022/07/21 12:52:22;;;;;;;12.45;9.80;;;;;;;;;;5056845;28;20546;-78
2022/07/21 12:54:48;;;;;;;11.25;9.88;;;;;;;;;;5064251;28;20032;-79
2022/07/21 12:57:14;;;;;;;12.57;9.40;;;;;;;;;;5078598;28;20119;-79
2022/07/21 12:59:40;;;;;;;12.00;9.38;;;;;;;;;;5100259;28;20031;-78
2022/07/21 13:02:06;;;;;;;14.63;10.35;;;;;;;;;;5077703;28;20078;-80
2022/07/21 13:04:32;;;;;;;12.23;10.18;;;;;;;;;;5047293;28;20078;-79
2022/07/21 13:06:58;;;;;;;10.77;8.60;;;;;;;;;;5054821;28;20480;-79
2022/07/21 13:09:24;;;;;;;13.60;10.75;;;;;;;;;;5070144;28;20036;-79
2022/07/21 13:11:50;;;;;;;9.80;8.18;;;;;;;;;;5063059;28;20351;-79
2022/07/21 13:14:16;;;;;;;11.93;8.73;;;;;;;;;;5064664;28;20429;-80
2022/07/21 13:16:43;;;;;;;10.63;8.98;;;;;;;;;;5039717;28;20407;-78
2022/07/21 13:19:09;;;;;;;10.10;8.63;;;;;;;;;;5078372;28;20377;-78
2022/07/21 13:21:35;;;;;;;11.98;8.48;;;;;;;;;;5088868;28;20047;-81
2022/07/21 13:24:01;;;;;;;9.30;8.02;;;;;;;;;;5080814;28;20115;-79
2022/07/21 13:26:28;;;;;;;11.70;8.85;;;;;;;;;;5078913;28;20492;-78
2022/07/21 13:28:54;;;;;;;11.15;8.40;;;;;;;;;;5061136;28;20048;-78
2022/07/21 13:31:21;;;;;;;10.50;8.00;;;;;;;;;;5055772;28;20094;-79
2022/07/21 13:33:47;;;;;;;9.57;8.35;;;;;;;;;;5073233;28;20484;-82
2022/07/21 13:36:13;;;;;;;12.65;9.65;;;;;;;;;;5083593;28;20035;-81
2022/07/21 13:38:40;;;;;;;11.98;10.40;;;;;;;;;;5081494;28;20109;-82
2022/07/21 13:41:06;;;;;;;11.82;10.25;;;;;;;;;;5083002;28;20048;-80
2022/07/21 13:43:32;;;;;;;10.75;9.00;;;;;;;;;;5092028;28;20039;-83
2022/07/21 13:45:58;;;;;;;11.20;8.93;;;;;;;;;;5074964;28;20051;-76
2022/07/21 13:48:24;;;;;;;11.20;8.85;;;;;;;;;;5079632;28;20515;-80
2022/07/21 13:50:50;;;;;;;11.30;8.05;;;;;;;;;;5089410;28;20482;-79
2022/07/21 13:53:16;;;;;;;12.18;8.25;;;;;;;;;;5056943;28;20124;-82
2022/07/21 13:55:42;;;;;;;9.75;8.27;;;;;;;;;;5093859;28;20035;-82
2022/07/21 13:58:09;;;;;;;10.07;8.15;;;;;;;;;;5071450;28;20089;-82
2022/07/21 14:00:35;;;;;;;10.65;9.48;;;;;;;;;;5073831;28;20067;-81
2022/07/21 14:03:02;;;;;;;10.77;8.98;;;;;;;;;;5084677;28;20134;-80
2022/07/21 14:05:28;;;;;;;10.60;9.18;;;;;;;;;;5080636;28;20036;-81
2022/07/21 14:07:54;;;;;;;10.75;8.70;;;;;;;;;;5069080;28;20505;-81
2022/07/21 14:10:20;;;;;;;11.02;8.68;;;;;;;;;;5074684;28;20067;-80
2022/07/21 14:12:46;;;;;;;11.63;8.23;;;;;;;;;;5093372;28;20040;-81
2022/07/21 14:15:12;;;;;;;10.20;7.60;;;;;;;;;;5094565;28;20491;-81
2022/07/21 14:17:38;;;;;;;7.53;6.72;;;;;;;;;;5089577;28;20066;-81
2022/07/21 14:20:05;;;;;;;10.93;8.38;;;;;;;;;;5074240;28;20048;-80
2022/07/21 14:22:31;;;;;;;9.02;7.55;;;;;;;;;;5086751;28;20055;-80
2022/07/21 14:27:41;;;;;;;12.02;9.10;;;;;;;;;;5085969;28;20044;-80